Time,TemperatureF,DewpointF,PressureIn,WindDirection,WindDirectionDegrees,WindSpeedMPH,WindSpeedGustMPH,Humidity,HourlyPrecipIn,Conditions,Clouds,dailyrainin,SoftwareType,DateUTC
2013-09-02 00:01:00,71.6,19.9,27.49,North,6,0.0,0.0,14,0.00,,---,0.00,VWS V14.01,2013-09-02 07:01:00,
2013-09-02 00:06:00,71.4,19.8,27.49,North,6,0.0,0.0,14,0.00,,---,0.00,VWS V14.01,2013-09-02 07:06:00,
2013-09-02 00:11:00,71.2,19.6,27.49,North,6,0.0,0.0,14,0.00,,---,0.00,VWS V14.01,2013-09-02 07:11:00,
2013-09-02 00:16:00,71.2,19.6,27.46,North,6,0.0,0.0,14,0.00,,---,0.00,VWS V14.01,2013-09-02 07:16:00,
2013-09-02 00:21:00,71.4,19.8,27.46,North,6,0.0,0.0,14,0.00,,---,0.00,VWS V14.01,2013-09-02 07:21:00,
2013-09-02 00:26:00,71.6,19.9,27.46,North,6,0.0,0.0,14,0.00,,---,0.00,VWS V14.01,2013-09-02 07:26:00,
2013-09-02 00:31:00,71.6,19.9,27.46,North,6,0.0,0.0,14,0.00,,---,0.00,VWS V14.01,2013-09-02 07:31:00,
2013-09-02 00:36:00,71.6,19.9,27.46,North,6,0.0,0.0,14,0.00,,---,0.00,VWS V14.01,2013-09-02 07:36:00,
2013-09-02 00:41:00,71.4,19.8,27.46,North,6,0.0,0.0,14,0.00,,---,0.00,VWS V14.01,2013-09-02 07:41:00,
2013-09-02 00:46:00,71.2,19.6,27.46,North,6,0.0,0.0,14,0.00,,---,0.00,VWS V14.01,2013-09-02 07:46:00,
2013-09-02 00:51:00,71.1,19.5,27.46,North,6,0.0,0.0,14,0.00,,---,0.00,VWS V14.01,2013-09-02 07:51:00,
2013-09-02 00:56:00,70.9,15.8,27.46,North,6,0.0,0.0,12,0.00,,---,0.00,VWS V14.01,2013-09-02 07:56:00,
2013-09-02 01:01:00,70.5,15.5,27.46,North,6,0.0,0.0,12,0.00,,---,0.00,VWS V14.01,2013-09-02 08:01:00,
2013-09-02 01:06:00,70.2,15.2,27.46,NNW,328,0.0,0.0,12,0.00,,---,0.00,VWS V14.01,2013-09-02 08:06:00,
2013-09-02 01:11:00,69.8,14.9,27.46,NNW,330,3.6,3.6,12,0.00,,---,0.00,VWS V14.01,2013-09-02 08:11:00,
2013-09-02 01:16:00,69.8,14.9,27.46,North,353,4.0,4.0,12,0.00,,---,0.00,VWS V14.01,2013-09-02 08:16:00,
2013-09-02 01:21:00,69.6,14.8,27.46,NNW,337,5.4,5.8,12,0.00,,---,0.00,VWS V14.01,2013-09-02 08:21:00,
2013-09-02 01:26:00,69.6,20.0,27.46,NE,43,3.1,3.1,15,0.00,,---,0.00,VWS V14.01,2013-09-02 08:26:00,
2013-09-02 01:31:00,69.4,19.8,27.46,NNE,23,8.3,8.3,15,0.00,,---,0.00,VWS V14.01,2013-09-02 08:31:00,
2013-09-02 01:36:00,69.4,19.8,27.46,ENE,68,3.1,4.0,15,0.00,,---,0.00,VWS V14.01,2013-09-02 08:36:00,
2013-09-02 01:41:00,69.3,14.5,27.46,NE,45,0.0,0.0,12,0.00,,---,0.00,VWS V14.01,2013-09-02 08:41:00,
2013-09-02 01:46:00,68.5,13.9,27.46,North,2,3.6,4.0,12,0.00,,---,0.00,VWS V14.01,2013-09-02 08:46:00,
2013-09-02 01:51:00,68.7,14.1,27.46,North,8,5.4,8.1,12,0.00,,---,0.00,VWS V14.01,2013-09-02 08:51:00,
2013-09-02 01:56:00,69.4,19.8,27.46,NNE,14,5.8,5.8,15,0.00,,---,0.00,VWS V14.01,2013-09-02 08:56:00,
2013-09-02 02:01:00,69.6,20.0,27.46,North,4,5.4,5.4,15,0.00,,---,0.00,VWS V14.01,2013-09-02 09:01:00,
2013-09-02 02:06:00,69.6,20.0,27.46,ENE,72,4.9,6.3,15,0.00,,---,0.00,VWS V14.01,2013-09-02 09:06:00,
2013-09-02 02:11:00,69.4,14.6,27.46,NE,46,0.0,0.0,12,0.00,,---,0.00,VWS V14.01,2013-09-02 09:11:00,
2013-09-02 02:16:00,69.1,14.4,27.46,NE,34,0.0,0.0,12,0.00,,---,0.00,VWS V14.01,2013-09-02 09:16:00,
2013-09-02 02:21:00,68.7,14.1,27.46,NNE,29,0.0,0.0,12,0.00,,---,0.00,VWS V14.01,2013-09-02 09:21:00,
2013-09-02 02:26:00,69.1,14.4,27.46,North,4,3.1,5.4,12,0.00,,---,0.00,VWS V14.01,2013-09-02 09:26:00,
2013-09-02 02:31:00,69.4,14.6,27.46,North,0,4.0,4.9,12,0.00,,---,0.00,VWS V14.01,2013-09-02 09:31:00,
2013-09-02 02:36:00,69.4,14.6,27.46,NE,37,2.7,2.7,12,0.00,,---,0.00,VWS V14.01,2013-09-02 09:36:00,
2013-09-02 02:41:00,69.1,14.4,27.46,ENE,57,0.0,0.0,12,0.00,,---,0.00,VWS V14.01,2013-09-02 09:41:00,
2013-09-02 02:46:00,68.7,14.1,27.46,NNE,20,0.0,0.0,12,0.00,,---,0.00,VWS V14.01,2013-09-02 09:46:00,
2013-09-02 02:51:00,68.4,13.8,27.46,NE,47,0.0,0.0,12,0.00,,---,0.00,VWS V14.01,2013-09-02 09:51:00,
2013-09-02 02:56:00,67.8,13.4,27.46,NE,53,0.0,0.0,12,0.00,,---,0.00,VWS V14.01,2013-09-02 09:56:00,
2013-09-02 03:01:00,67.3,13.0,27.46,NNE,25,0.0,0.0,12,0.00,,---,0.00,VWS V14.01,2013-09-02 10:01:00,
2013-09-02 03:06:00,67.1,12.8,27.46,NNE,25,0.0,0.0,12,0.00,,---,0.00,VWS V14.01,2013-09-02 10:06:00,
2013-09-02 03:11:00,66.7,17.6,27.46,NNE,25,0.0,0.0,15,0.00,,---,0.00,VWS V14.01,2013-09-02 10:11:00,
2013-09-02 03:16:00,66.6,17.5,27.46,NNE,25,0.0,0.0,15,0.00,,---,0.00,VWS V14.01,2013-09-02 10:16:00,
2013-09-02 03:21:00,66.6,17.5,27.46,NNW,335,4.0,4.0,15,0.00,,---,0.00,VWS V14.01,2013-09-02 10:21:00,
2013-09-02 03:26:00,66.6,17.5,27.46,North,353,2.7,5.4,15,0.00,,---,0.00,VWS V14.01,2013-09-02 10:26:00,
2013-09-02 03:31:00,66.4,17.4,27.46,NNW,335,2.7,2.7,15,0.00,,---,0.00,VWS V14.01,2013-09-02 10:31:00,
2013-09-02 03:36:00,66.0,17.1,27.46,North,0,4.0,4.0,15,0.00,,---,0.00,VWS V14.01,2013-09-02 10:36:00,
2013-09-02 03:41:00,65.8,16.9,27.46,West,262,0.0,0.0,15,0.00,,---,0.00,VWS V14.01,2013-09-02 10:41:00,
2013-09-02 03:46:00,65.5,16.6,27.46,NNW,332,5.8,5.8,15,0.00,,---,0.00,VWS V14.01,2013-09-02 10:46:00,
2013-09-02 03:51:00,65.3,16.5,27.46,North,353,0.0,0.0,15,0.00,,---,0.00,VWS V14.01,2013-09-02 10:51:00,
2013-09-02 03:56:00,65.1,16.4,27.46,NNW,336,0.0,0.0,15,0.00,,---,0.00,VWS V14.01,2013-09-02 10:56:00,
2013-09-02 04:01:00,65.1,16.4,27.46,North,0,0.0,0.0,15,0.00,,---,0.00,VWS V14.01,2013-09-02 11:01:00,
2013-09-02 04:06:00,65.3,16.5,27.46,North,0,0.0,0.0,15,0.00,,---,0.00,VWS V14.01,2013-09-02 11:06:00,
2013-09-02 04:11:00,65.1,16.4,27.46,North,0,0.0,0.0,15,0.00,,---,0.00,VWS V14.01,2013-09-02 11:11:00,
2013-09-02 04:16:00,64.8,16.1,27.46,North,0,0.0,0.0,15,0.00,,---,0.00,VWS V14.01,2013-09-02 11:16:00,
2013-09-02 04:21:00,64.2,17.1,27.46,North,0,0.0,0.0,16,0.00,,---,0.00,VWS V14.01,2013-09-02 11:21:00,
2013-09-02 04:26:00,63.9,16.8,27.46,North,0,0.0,0.0,16,0.00,,---,0.00,VWS V14.01,2013-09-02 11:26:00,
2013-09-02 04:31:00,63.5,16.5,27.46,North,0,0.0,0.0,16,0.00,,---,0.00,VWS V14.01,2013-09-02 11:31:00,
2013-09-02 04:36:00,63.1,16.2,27.46,North,0,0.0,0.0,16,0.00,,---,0.00,VWS V14.01,2013-09-02 11:36:00,
2013-09-02 04:41:00,63.1,16.2,27.46,North,0,0.0,0.0,16,0.00,,---,0.00,VWS V14.01,2013-09-02 11:41:00,
2013-09-02 04:46:00,63.0,18.8,27.46,North,0,0.0,0.0,18,0.00,,---,0.00,VWS V14.01,2013-09-02 11:46:00,
2013-09-02 04:51:00,63.0,18.8,27.46,North,0,0.0,0.0,18,0.00,,---,0.00,VWS V14.01,2013-09-02 11:51:00,
2013-09-02 04:56:00,63.3,19.1,27.46,North,0,0.0,0.0,18,0.00,,---,0.00,VWS V14.01,2013-09-02 11:56:00,
2013-09-02 05:01:00,63.5,16.5,27.46,North,0,0.0,0.0,16,0.00,,---,0.00,VWS V14.01,2013-09-02 12:01:00,
2013-09-02 05:06:00,63.9,16.8,27.46,North,0,0.0,0.0,16,0.00,,---,0.00,VWS V14.01,2013-09-02 12:06:00,
2013-09-02 05:11:00,64.2,17.1,27.46,North,0,0.0,0.0,16,0.00,,---,0.00,VWS V14.01,2013-09-02 12:11:00,
2013-09-02 05:16:00,64.6,15.9,27.49,North,0,0.0,0.0,15,0.00,,---,0.00,VWS V14.01,2013-09-02 12:16:00,
2013-09-02 05:21:00,64.9,16.2,27.49,North,0,0.0,0.0,15,0.00,,---,0.00,VWS V14.01,2013-09-02 12:21:00,
2013-09-02 05:26:00,65.1,16.4,27.49,North,0,0.0,0.0,15,0.00,,---,0.00,VWS V14.01,2013-09-02 12:26:00,
2013-09-02 05:31:00,65.5,16.6,27.49,North,0,0.0,0.0,15,0.00,,---,0.00,VWS V14.01,2013-09-02 12:31:00,
2013-09-02 05:36:00,65.7,16.8,27.49,North,0,0.0,0.0,15,0.00,,---,0.00,VWS V14.01,2013-09-02 12:36:00,
2013-09-02 05:41:00,65.5,16.6,27.49,North,0,0.0,0.0,15,0.00,,---,0.00,VWS V14.01,2013-09-02 12:41:00,
2013-09-02 05:46:00,64.9,16.2,27.49,North,0,0.0,0.0,15,0.00,,---,0.00,VWS V14.01,2013-09-02 12:46:00,
2013-09-02 05:51:00,64.4,15.8,27.49,NE,34,0.0,0.0,15,0.00,,---,0.00,VWS V14.01,2013-09-02 12:51:00,
2013-09-02 05:56:00,64.2,17.1,27.49,South,175,0.0,0.0,16,0.00,,---,0.00,VWS V14.01,2013-09-02 12:56:00,
2013-09-02 06:01:00,63.9,16.8,27.49,South,184,0.0,0.0,16,0.00,,---,0.00,VWS V14.01,2013-09-02 13:01:00,
2013-09-02 06:06:00,63.7,16.7,27.49,South,184,0.0,0.0,16,0.00,,---,0.00,VWS V14.01,2013-09-02 13:06:00,
2013-09-02 06:11:00,63.9,16.8,27.49,South,184,0.0,0.0,16,0.00,,---,0.00,VWS V14.01,2013-09-02 13:11:00,
2013-09-02 06:16:00,64.0,17.0,27.52,South,180,0.0,0.0,16,0.00,,---,0.00,VWS V14.01,2013-09-02 13:16:00,
2013-09-02 06:21:00,64.6,15.9,27.52,West,272,0.0,0.0,15,0.00,,---,0.00,VWS V14.01,2013-09-02 13:21:00,
2013-09-02 06:25:00,65.5,16.6,27.52,WNW,300,0.0,0.0,15,0.00,,---,0.00,VWS V14.01,2013-09-02 13:25:00,
2013-09-02 06:30:00,65.5,16.6,27.52,WNW,298,0.0,0.0,15,0.00,,---,0.00,VWS V14.01,2013-09-02 13:30:00,
2013-09-02 06:35:00,65.3,16.5,27.52,NNW,328,0.0,0.0,15,0.00,,---,0.00,VWS V14.01,2013-09-02 13:35:00,
2013-09-02 06:40:00,65.1,16.4,27.52,West,260,0.0,0.0,15,0.00,,---,0.00,VWS V14.01,2013-09-02 13:40:00,
2013-09-02 06:45:00,65.1,16.4,27.52,West,261,0.0,0.0,15,0.00,,---,0.00,VWS V14.01,2013-09-02 13:45:00,
2013-09-02 06:50:00,64.9,16.2,27.52,WSW,253,0.0,0.0,15,0.00,,---,0.00,VWS V14.01,2013-09-02 13:50:00,
2013-09-02 06:55:00,64.9,16.2,27.52,NE,37,0.0,0.0,15,0.00,,---,0.00,VWS V14.01,2013-09-02 13:55:00,
2013-09-02 07:00:00,64.6,15.9,27.52,ENE,62,0.0,0.0,15,0.00,,---,0.00,VWS V14.01,2013-09-02 14:00:00,
2013-09-02 07:05:00,64.2,17.1,27.52,ENE,57,0.0,0.0,16,0.00,,---,0.00,VWS V14.01,2013-09-02 14:05:00,
2013-09-02 07:10:00,63.7,16.7,27.52,East,99,0.0,0.0,16,0.00,,---,0.00,VWS V14.01,2013-09-02 14:10:00,
2013-09-02 07:15:00,63.3,19.1,27.52,ESE,118,0.0,0.0,18,0.00,,---,0.00,VWS V14.01,2013-09-02 14:15:00,
2013-09-02 07:20:00,63.1,19.0,27.52,ESE,119,0.0,0.0,18,0.00,,---,0.00,VWS V14.01,2013-09-02 14:20:00,
2013-09-02 07:25:00,63.3,19.1,27.52,ESE,119,0.0,0.0,18,0.00,,---,0.00,VWS V14.01,2013-09-02 14:25:00,
2013-09-02 07:30:00,63.9,19.6,27.52,North,357,0.0,0.0,18,0.00,,---,0.00,VWS V14.01,2013-09-02 14:30:00,
2013-09-02 07:35:00,64.6,20.1,27.52,NW,320,0.0,0.0,18,0.00,,---,0.00,VWS V14.01,2013-09-02 14:35:00,
2013-09-02 07:40:00,65.1,20.6,27.52,West,272,0.0,0.0,18,0.00,,---,0.00,VWS V14.01,2013-09-02 14:40:00,
2013-09-02 07:45:00,65.5,20.9,27.55,NW,319,0.0,0.0,18,0.00,,---,0.00,VWS V14.01,2013-09-02 14:45:00,
2013-09-02 07:50:00,65.5,20.9,27.55,NW,314,0.0,0.0,18,0.00,,---,0.00,VWS V14.01,2013-09-02 14:50:00,
2013-09-02 07:55:00,65.7,21.0,27.55,North,353,0.0,0.0,18,0.00,,---,0.00,VWS V14.01,2013-09-02 14:55:00,
2013-09-02 08:00:00,65.7,21.0,27.55,NE,41,0.0,0.0,18,0.00,,---,0.00,VWS V14.01,2013-09-02 15:00:00,
2013-09-02 08:05:00,65.5,20.9,27.55,ENE,62,0.0,0.0,18,0.00,,---,0.00,VWS V14.01,2013-09-02 15:05:00,
2013-09-02 08:10:00,65.3,20.7,27.55,ENE,60,0.0,0.0,18,0.00,,---,0.00,VWS V14.01,2013-09-02 15:10:00,
2013-09-02 08:15:00,65.1,20.6,27.55,NNE,15,0.0,0.0,18,0.00,,---,0.00,VWS V14.01,2013-09-02 15:15:00,
2013-09-02 08:20:00,64.9,20.4,27.55,NNE,22,0.0,0.0,18,0.00,,---,0.00,VWS V14.01,2013-09-02 15:20:00,
2013-09-02 08:25:00,64.9,20.4,27.55,ENE,57,0.0,0.0,18,0.00,,---,0.00,VWS V14.01,2013-09-02 15:25:00,
2013-09-02 08:30:00,64.8,20.3,27.55,NE,48,0.0,0.0,18,0.00,,---,0.00,VWS V14.01,2013-09-02 15:30:00,
2013-09-02 08:35:00,64.6,20.1,27.55,NE,49,0.0,0.0,18,0.00,,---,0.00,VWS V14.01,2013-09-02 15:35:00,
2013-09-02 08:40:00,64.4,20.0,27.55,East,88,0.0,0.0,18,0.00,,---,0.00,VWS V14.01,2013-09-02 15:40:00,
2013-09-02 08:45:00,64.8,20.3,27.55,East,88,0.0,0.0,18,0.00,,---,0.00,VWS V14.01,2013-09-02 15:45:00,
2013-09-02 08:50:00,65.3,20.7,27.55,SSW,209,0.0,0.0,18,0.00,,---,0.00,VWS V14.01,2013-09-02 15:50:00,
2013-09-02 08:55:00,65.7,23.5,27.55,NNW,344,0.0,0.0,20,0.00,,---,0.00,VWS V14.01,2013-09-02 15:55:00,
2013-09-02 09:00:00,66.0,21.3,27.55,North,353,3.6,4.0,18,0.00,,---,0.00,VWS V14.01,2013-09-02 16:00:00,
2013-09-02 09:05:00,66.7,20.6,27.55,NNE,29,2.2,2.7,17,0.00,,---,0.00,VWS V14.01,2013-09-02 16:05:00,
2013-09-02 09:10:00,67.8,18.5,27.55,North,349,5.4,5.4,15,0.00,,---,0.00,VWS V14.01,2013-09-02 16:10:00,
2013-09-02 09:15:00,68.4,19.0,27.55,NW,326,8.3,8.3,15,0.00,,---,0.00,VWS V14.01,2013-09-02 16:15:00,
2013-09-02 09:20:00,67.6,18.4,27.55,North,357,8.1,8.3,15,0.00,,---,0.00,VWS V14.01,2013-09-02 16:20:00,
2013-09-02 09:25:00,67.1,20.9,27.55,NNW,346,10.5,10.5,17,0.00,,---,0.00,VWS V14.01,2013-09-02 16:25:00,
2013-09-02 09:30:00,66.4,20.3,27.52,NNW,341,8.1,10.1,17,0.00,,---,0.00,VWS V14.01,2013-09-02 16:30:00,
2013-09-02 09:35:00,66.4,20.3,27.52,NE,43,7.6,7.6,17,0.00,,---,0.00,VWS V14.01,2013-09-02 16:35:00,
2013-09-02 09:40:00,66.4,20.3,27.52,North,353,6.3,6.3,17,0.00,,---,0.00,VWS V14.01,2013-09-02 16:40:00,
2013-09-02 09:45:00,66.4,20.3,27.55,NNE,27,5.8,6.3,17,0.00,,---,0.00,VWS V14.01,2013-09-02 16:45:00,
2013-09-02 09:50:00,66.2,20.1,27.55,North,3,4.0,5.4,17,0.00,,---,0.00,VWS V14.01,2013-09-02 16:50:00,
2013-09-02 09:55:00,66.0,23.8,27.55,North,353,3.6,3.6,20,0.00,,---,0.00,VWS V14.01,2013-09-02 16:55:00,
2013-09-02 10:00:00,66.0,23.8,27.55,NE,48,0.0,0.0,20,0.00,,---,0.00,VWS V14.01,2013-09-02 17:00:00,
2013-09-02 10:05:00,66.2,26.3,27.55,ENE,59,0.0,0.0,22,0.00,,---,0.00,VWS V14.01,2013-09-02 17:05:00,
2013-09-02 10:10:00,66.2,28.4,27.55,North,3,0.0,0.0,24,0.00,,---,0.00,VWS V14.01,2013-09-02 17:10:00,
2013-09-02 10:15:00,66.0,31.1,27.55,NNW,348,0.0,0.0,27,0.00,,---,0.00,VWS V14.01,2013-09-02 17:15:00,
2013-09-02 10:20:00,65.8,31.9,27.55,NNE,14,0.0,0.0,28,0.00,,---,0.00,VWS V14.01,2013-09-02 17:20:00,
2013-09-02 10:25:00,65.8,31.0,27.55,NNE,21,0.0,0.0,27,0.00,,---,0.00,VWS V14.01,2013-09-02 17:25:00,
2013-09-02 10:30:00,66.0,30.2,27.55,NE,39,0.0,0.0,26,0.00,,---,0.00,VWS V14.01,2013-09-02 17:30:00,
2013-09-02 10:35:00,66.0,31.1,27.55,NNE,27,0.0,0.0,27,0.00,,---,0.00,VWS V14.01,2013-09-02 17:35:00,
2013-09-02 10:40:00,66.4,30.5,27.55,NNE,32,0.0,0.0,26,0.00,,---,0.00,VWS V14.01,2013-09-02 17:40:00,
2013-09-02 10:45:00,66.7,29.8,27.55,North,0,0.0,0.0,25,0.00,,---,0.00,VWS V14.01,2013-09-02 17:45:00,
2013-09-02 10:50:00,66.9,29.0,27.55,NE,41,0.0,0.0,24,0.00,,---,0.00,VWS V14.01,2013-09-02 17:50:00,
2013-09-02 10:55:00,66.9,29.0,27.55,North,0,0.0,0.0,24,0.00,,---,0.00,VWS V14.01,2013-09-02 17:55:00,
2013-09-02 11:00:00,66.4,30.5,27.55,North,0,0.0,0.0,26,0.00,,---,0.00,VWS V14.01,2013-09-02 18:00:00,
2013-09-02 11:05:00,65.8,33.6,27.55,North,357,0.0,0.0,30,0.00,,---,0.00,VWS V14.01,2013-09-02 18:05:00,
2013-09-02 11:10:00,65.5,34.1,27.55,NE,47,0.0,0.0,31,0.00,,---,0.00,VWS V14.01,2013-09-02 18:10:00,
2013-09-02 11:15:00,65.7,35.0,27.55,NE,36,0.0,0.0,32,0.00,,---,0.00,VWS V14.01,2013-09-02 18:15:00,
2013-09-02 11:20:00,65.8,35.2,27.55,ENE,63,0.0,0.0,32,0.00,,---,0.00,VWS V14.01,2013-09-02 18:20:00,
2013-09-02 11:25:00,66.2,35.5,27.55,North,2,0.0,0.0,32,0.00,,---,0.00,VWS V14.01,2013-09-02 18:25:00,
2013-09-02 11:30:00,66.6,35.8,27.55,NE,39,0.0,0.0,32,0.00,,---,0.00,VWS V14.01,2013-09-02 18:30:00,
2013-09-02 11:35:00,67.1,35.5,27.55,North,353,0.0,0.0,31,0.00,,---,0.00,VWS V14.01,2013-09-02 18:35:00,
2013-09-02 11:40:00,67.6,36.0,27.55,NNW,346,0.0,0.0,31,0.00,,---,0.00,VWS V14.01,2013-09-02 18:40:00,
2013-09-02 11:45:00,68.0,33.7,27.55,NNW,342,0.0,0.0,28,0.00,,---,0.00,VWS V14.01,2013-09-02 18:45:00,
2013-09-02 11:50:00,68.0,30.9,27.55,NNW,346,0.0,0.0,25,0.00,,---,0.00,VWS V14.01,2013-09-02 18:50:00,
2013-09-02 11:55:00,67.8,30.7,27.55,North,349,0.0,0.0,25,0.00,,---,0.00,VWS V14.01,2013-09-02 18:55:00,
2013-09-02 12:00:00,67.6,30.6,27.55,NNW,346,0.0,0.0,25,0.00,,---,0.00,VWS V14.01,2013-09-02 19:00:00,
2013-09-02 12:05:00,68.0,28.9,27.55,NNW,344,0.0,0.0,23,0.00,,---,0.00,VWS V14.01,2013-09-02 19:05:00,
2013-09-02 12:10:00,68.4,29.1,27.55,North,349,0.0,0.0,23,0.00,,---,0.00,VWS V14.01,2013-09-02 19:10:00,
2013-09-02 12:15:00,68.7,28.4,27.55,North,357,0.0,0.0,22,0.00,,---,0.00,VWS V14.01,2013-09-02 19:15:00,
2013-09-02 12:20:00,68.9,28.5,27.55,NNE,30,0.0,0.0,22,0.00,,---,0.00,VWS V14.01,2013-09-02 19:20:00,
2013-09-02 12:25:00,68.9,28.5,27.55,NNW,346,0.0,0.0,22,0.00,,---,0.00,VWS V14.01,2013-09-02 19:25:00,
2013-09-02 12:30:00,68.9,28.5,27.55,NNE,33,0.0,0.0,22,0.00,,---,0.00,VWS V14.01,2013-09-02 19:30:00,
2013-09-02 12:35:00,69.1,28.7,27.55,North,349,0.0,0.0,22,0.00,,---,0.00,VWS V14.01,2013-09-02 19:35:00,
2013-09-02 12:40:00,69.4,30.1,27.55,North,0,0.0,0.0,23,0.00,,---,0.00,VWS V14.01,2013-09-02 19:40:00,
2013-09-02 12:45:00,70.5,29.9,27.55,North,353,0.0,0.0,22,0.00,,---,0.00,VWS V14.01,2013-09-02 19:45:00,
2013-09-02 12:50:00,71.8,29.8,27.55,North,353,0.0,0.0,21,0.00,,---,0.00,VWS V14.01,2013-09-02 19:50:00,
2013-09-02 12:55:00,72.7,28.1,27.55,NNW,339,0.0,0.0,19,0.00,,---,0.00,VWS V14.01,2013-09-02 19:55:00,
2013-09-02 13:00:00,72.9,24.1,27.55,NNW,343,0.0,0.0,16,0.00,,---,0.00,VWS V14.01,2013-09-02 20:00:00,
2013-09-02 13:05:00,72.5,23.8,27.55,North,0,0.0,0.0,16,0.00,,---,0.00,VWS V14.01,2013-09-02 20:05:00,
2013-09-02 13:10:00,72.1,23.5,27.55,North,0,0.0,0.0,16,0.00,,---,0.00,VWS V14.01,2013-09-02 20:10:00,
2013-09-02 13:15:00,72.0,23.4,27.55,North,0,0.0,0.0,16,0.00,,---,0.00,VWS V14.01,2013-09-02 20:15:00,
2013-09-02 13:20:00,71.6,23.1,27.55,North,6,0.0,0.0,16,0.00,,---,0.00,VWS V14.01,2013-09-02 20:20:00,
2013-09-02 13:25:00,71.2,24.2,27.55,North,7,0.0,0.0,17,0.00,,---,0.00,VWS V14.01,2013-09-02 20:25:00,
2013-09-02 13:30:00,71.1,24.1,27.55,NNW,341,0.0,0.0,17,0.00,,---,0.00,VWS V14.01,2013-09-02 20:30:00,
2013-09-02 13:35:00,70.9,23.9,27.55,North,0,0.0,0.0,17,0.00,,---,0.00,VWS V14.01,2013-09-02 20:35:00,
2013-09-02 13:40:00,70.7,23.8,27.55,NNE,17,0.0,0.0,17,0.00,,---,0.00,VWS V14.01,2013-09-02 20:40:00,
2013-09-02 13:45:00,70.7,23.8,27.55,North,2,0.0,0.0,17,0.00,,---,0.00,VWS V14.01,2013-09-02 20:45:00,
2013-09-02 13:50:00,70.9,26.6,27.55,North,2,0.0,0.0,19,0.00,,---,0.00,VWS V14.01,2013-09-02 20:50:00,
2013-09-02 13:55:00,70.9,23.9,27.55,NE,52,0.0,0.0,17,0.00,,---,0.00,VWS V14.01,2013-09-02 20:55:00,
2013-09-02 14:00:00,70.9,26.6,27.55,North,353,0.0,0.0,19,0.00,,---,0.00,VWS V14.01,2013-09-02 21:00:00,
2013-09-02 14:05:00,70.9,23.9,27.55,NNE,14,0.0,0.0,17,0.00,,---,0.00,VWS V14.01,2013-09-02 21:05:00,
2013-09-02 14:10:00,71.1,26.8,27.55,North,8,0.0,0.0,19,0.00,,---,0.00,VWS V14.01,2013-09-02 21:10:00,
2013-09-02 14:15:00,71.2,26.9,27.55,NE,47,0.0,0.0,19,0.00,,---,0.00,VWS V14.01,2013-09-02 21:15:00,
2013-09-02 14:20:00,71.4,27.0,27.55,NNW,339,0.0,0.0,19,0.00,,---,0.00,VWS V14.01,2013-09-02 21:20:00,
2013-09-02 14:25:00,71.4,27.0,27.55,NW,310,0.0,0.0,19,0.00,,---,0.00,VWS V14.01,2013-09-02 21:25:00,
2013-09-02 14:30:00,71.4,27.0,27.55,NE,44,0.0,0.0,19,0.00,,---,0.00,VWS V14.01,2013-09-02 21:30:00,
2013-09-02 14:35:00,71.8,27.3,27.55,North,11,0.0,0.0,19,0.00,,---,0.00,VWS V14.01,2013-09-02 21:35:00,
2013-09-02 14:40:00,72.3,23.6,27.55,NNE,30,0.0,0.0,16,0.00,,---,0.00,VWS V14.01,2013-09-02 21:40:00,
2013-09-02 14:45:00,72.7,23.9,27.55,North,350,0.0,0.0,16,0.00,,---,0.00,VWS V14.01,2013-09-02 21:45:00,
2013-09-02 14:50:00,72.5,23.8,27.55,NE,50,0.0,0.0,16,0.00,,---,0.00,VWS V14.01,2013-09-02 21:50:00,
2013-09-02 14:55:00,72.3,23.6,27.55,North,353,0.0,0.0,16,0.00,,---,0.00,VWS V14.01,2013-09-02 21:55:00,
2013-09-02 15:00:00,72.3,23.6,27.55,NE,46,0.0,0.0,16,0.00,,---,0.00,VWS V14.01,2013-09-02 22:00:00,
2013-09-02 15:05:00,72.3,23.6,27.55,NNW,340,0.0,0.0,16,0.00,,---,0.00,VWS V14.01,2013-09-02 22:05:00,
2013-09-02 15:10:00,72.1,23.5,27.55,North,353,0.0,0.0,16,0.00,,---,0.00,VWS V14.01,2013-09-02 22:10:00,
2013-09-02 15:15:00,72.1,23.5,27.58,North,353,0.0,0.0,16,0.00,,---,0.00,VWS V14.01,2013-09-02 22:15:00,
2013-09-02 15:20:00,72.3,20.5,27.58,SSW,206,0.0,0.0,14,0.00,,---,0.00,VWS V14.01,2013-09-02 22:20:00,
2013-09-02 15:25:00,72.7,23.9,27.58,SSE,149,0.0,0.0,16,0.00,,---,0.00,VWS V14.01,2013-09-02 22:25:00,
2013-09-02 15:30:00,72.5,23.8,27.58,SSE,156,0.0,0.0,16,0.00,,---,0.00,VWS V14.01,2013-09-02 22:30:00,
2013-09-02 15:35:00,72.0,20.2,27.58,South,191,0.0,0.0,14,0.00,,---,0.00,VWS V14.01,2013-09-02 22:35:00,
2013-09-02 15:40:00,71.4,19.8,27.58,SSE,156,0.0,0.0,14,0.00,,---,0.00,VWS V14.01,2013-09-02 22:40:00,
2013-09-02 15:45:00,71.1,19.5,27.58,South,170,0.0,0.0,14,0.00,,---,0.00,VWS V14.01,2013-09-02 22:45:00,
2013-09-02 15:50:00,70.7,23.8,27.58,South,190,0.0,0.0,17,0.00,,---,0.00,VWS V14.01,2013-09-02 22:50:00,
2013-09-02 15:55:00,70.5,23.6,27.58,South,171,0.0,0.0,17,0.00,,---,0.00,VWS V14.01,2013-09-02 22:55:00,
2013-09-02 16:00:00,70.3,23.5,27.55,SE,141,0.0,0.0,17,0.00,,---,0.00,VWS V14.01,2013-09-02 23:00:00,
2013-09-02 16:05:00,70.2,23.4,27.55,ESE,113,0.0,0.0,17,0.00,,---,0.00,VWS V14.01,2013-09-02 23:05:00,
2013-09-02 16:10:00,70.2,23.4,27.55,ENE,58,0.0,0.0,17,0.00,,---,0.00,VWS V14.01,2013-09-02 23:10:00,
2013-09-02 16:15:00,70.3,23.5,27.55,NE,48,0.0,0.0,17,0.00,,---,0.00,VWS V14.01,2013-09-02 23:15:00,
2013-09-02 16:20:00,70.5,23.6,27.55,SSE,151,0.0,0.0,17,0.00,,---,0.00,VWS V14.01,2013-09-02 23:20:00,
2013-09-02 16:25:00,70.5,23.6,27.55,South,186,0.0,0.0,17,0.00,,---,0.00,VWS V14.01,2013-09-02 23:25:00,
2013-09-02 16:30:00,70.7,23.8,27.55,SSW,197,0.0,0.0,17,0.00,,---,0.00,VWS V14.01,2013-09-02 23:30:00,
2013-09-02 16:35:00,70.9,26.6,27.55,WNW,298,0.0,0.0,19,0.00,,---,0.00,VWS V14.01,2013-09-02 23:35:00,
2013-09-02 16:40:00,70.9,30.2,27.55,NW,314,0.0,0.0,22,0.00,,---,0.00,VWS V14.01,2013-09-02 23:40:00,
2013-09-02 16:45:00,70.9,26.6,27.55,North,353,0.0,0.0,19,0.00,,---,0.00,VWS V14.01,2013-09-02 23:45:00,
2013-09-02 16:50:00,70.5,29.9,27.55,NNW,344,0.0,0.0,22,0.00,,---,0.00,VWS V14.01,2013-09-02 23:50:00,
2013-09-02 16:55:00,70.3,29.7,27.55,NNW,348,0.0,0.0,22,0.00,,---,0.00,VWS V14.01,2013-09-02 23:55:00,
2013-09-02 17:00:00,70.3,30.8,27.55,North,353,0.0,0.0,23,0.00,,---,0.00,VWS V14.01,2013-09-03 00:00:00,
2013-09-02 17:05:00,70.3,30.8,27.55,North,353,0.0,0.0,23,0.00,,---,0.00,VWS V14.01,2013-09-03 00:05:00,
2013-09-02 17:10:00,70.2,30.7,27.55,North,1,0.0,0.0,23,0.00,,---,0.00,VWS V14.01,2013-09-03 00:10:00,
2013-09-02 17:15:00,70.2,30.7,27.55,North,0,0.0,0.0,23,0.00,,---,0.00,VWS V14.01,2013-09-03 00:15:00,
2013-09-02 17:20:00,70.2,31.7,27.55,North,349,0.0,0.0,24,0.00,,---,0.00,VWS V14.01,2013-09-03 00:20:00,
2013-09-02 17:25:00,70.2,30.7,27.55,NE,51,0.0,0.0,23,0.00,,---,0.00,VWS V14.01,2013-09-03 00:25:00,
2013-09-02 17:30:00,70.2,30.7,27.55,NE,41,0.0,0.0,23,0.00,,---,0.00,VWS V14.01,2013-09-03 00:30:00,
2013-09-02 17:35:00,70.2,30.7,27.55,NNE,21,0.0,0.0,23,0.00,,---,0.00,VWS V14.01,2013-09-03 00:35:00,
2013-09-02 17:40:00,70.2,30.7,27.55,NE,55,0.0,0.0,23,0.00,,---,0.00,VWS V14.01,2013-09-03 00:40:00,
2013-09-02 17:45:00,70.3,30.8,27.55,NNE,20,0.0,0.0,23,0.00,,---,0.00,VWS V14.01,2013-09-03 00:45:00,
2013-09-02 17:50:00,70.3,30.8,27.55,North,0,0.0,0.0,23,0.00,,---,0.00,VWS V14.01,2013-09-03 00:50:00,
2013-09-02 17:55:00,70.0,31.6,27.55,North,350,0.0,0.0,24,0.00,,---,0.00,VWS V14.01,2013-09-03 00:55:00,
2013-09-02 18:00:00,69.6,33.2,27.55,North,353,0.0,0.0,26,0.00,,---,0.00,VWS V14.01,2013-09-03 01:00:00,
2013-09-02 18:04:00,69.3,32.9,27.55,North,357,0.0,0.0,26,0.00,,---,0.00,VWS V14.01,2013-09-03 01:04:00,
2013-09-02 18:10:00,69.1,33.7,27.55,North,1,0.0,0.0,27,0.00,,---,0.00,VWS V14.01,2013-09-03 01:10:00,
2013-09-02 18:15:00,69.1,33.7,27.55,North,0,0.0,0.0,27,0.00,,---,0.00,VWS V14.01,2013-09-03 01:15:00,
2013-09-02 18:19:00,68.9,33.6,27.55,NNE,33,0.0,0.0,27,0.00,,---,0.00,VWS V14.01,2013-09-03 01:19:00,
2013-09-02 18:24:00,68.9,33.6,27.55,North,5,0.0,0.0,27,0.00,,---,0.00,VWS V14.01,2013-09-03 01:24:00,
2013-09-02 18:29:00,68.9,33.6,27.55,NNE,17,0.0,0.0,27,0.00,,---,0.00,VWS V14.01,2013-09-03 01:29:00,
2013-09-02 18:34:00,68.9,32.6,27.55,NNE,27,0.0,0.0,26,0.00,,---,0.00,VWS V14.01,2013-09-03 01:34:00,
2013-09-02 18:39:00,69.3,32.9,27.55,North,9,0.0,0.0,26,0.00,,---,0.00,VWS V14.01,2013-09-03 01:39:00,
2013-09-02 18:44:00,69.1,32.8,27.55,NNE,13,0.0,0.0,26,0.00,,---,0.00,VWS V14.01,2013-09-03 01:44:00,
2013-09-02 18:49:00,68.9,32.6,27.55,NNE,28,0.0,0.0,26,0.00,,---,0.00,VWS V14.01,2013-09-03 01:49:00,
2013-09-02 18:54:00,68.7,32.5,27.55,NNE,27,0.0,0.0,26,0.00,,---,0.00,VWS V14.01,2013-09-03 01:54:00,
2013-09-02 18:59:00,68.5,32.3,27.55,NE,39,0.0,0.0,26,0.00,,---,0.00,VWS V14.01,2013-09-03 01:59:00,
2013-09-02 19:04:00,68.4,32.2,27.55,North,0,0.0,0.0,26,0.00,,---,0.00,VWS V14.01,2013-09-03 02:04:00,
2013-09-02 19:09:00,68.2,32.0,27.55,NNE,20,0.0,0.0,26,0.00,,---,0.00,VWS V14.01,2013-09-03 02:09:00,
2013-09-02 19:14:00,68.0,31.9,27.55,NE,42,0.0,0.0,26,0.00,,---,0.00,VWS V14.01,2013-09-03 02:14:00,
2013-09-02 19:19:00,67.8,32.7,27.55,NNE,14,0.0,0.0,27,0.00,,---,0.00,VWS V14.01,2013-09-03 02:19:00,
2013-09-02 19:24:00,67.6,32.5,27.55,NW,325,0.0,0.0,27,0.00,,---,0.00,VWS V14.01,2013-09-03 02:24:00,
2013-09-02 19:29:00,67.5,31.4,27.55,ENE,57,0.0,0.0,26,0.00,,---,0.00,VWS V14.01,2013-09-03 02:29:00,
2013-09-02 19:34:00,67.5,31.4,27.55,NE,36,0.0,0.0,26,0.00,,---,0.00,VWS V14.01,2013-09-03 02:34:00,
2013-09-02 19:39:00,67.5,31.4,27.55,NE,39,0.0,0.0,26,0.00,,---,0.00,VWS V14.01,2013-09-03 02:39:00,
2013-09-02 19:44:00,67.3,32.2,27.55,NNE,23,0.0,0.0,27,0.00,,---,0.00,VWS V14.01,2013-09-03 02:44:00,
2013-09-02 19:49:00,67.1,32.0,27.55,NE,42,0.0,0.0,27,0.00,,---,0.00,VWS V14.01,2013-09-03 02:49:00,
2013-09-02 19:54:00,66.9,32.8,27.55,NNE,31,0.0,0.0,28,0.00,,---,0.00,VWS V14.01,2013-09-03 02:54:00,
2013-09-02 19:59:00,66.6,33.3,27.55,NE,38,0.0,0.0,29,0.00,,---,0.00,VWS V14.01,2013-09-03 02:59:00,
2013-09-02 20:04:00,66.4,33.2,27.55,NE,38,0.0,0.0,29,0.00,,---,0.00,VWS V14.01,2013-09-03 03:04:00,
2013-09-02 20:09:00,66.0,35.3,27.55,North,353,0.0,0.0,32,0.00,,---,0.00,VWS V14.01,2013-09-03 03:09:00,
2013-09-02 20:14:00,65.8,36.0,27.55,NE,45,0.0,0.0,33,0.00,,---,0.00,VWS V14.01,2013-09-03 03:14:00,
2013-09-02 20:19:00,65.8,36.0,27.55,NE,35,0.0,0.0,33,0.00,,---,0.00,VWS V14.01,2013-09-03 03:19:00,
2013-09-02 20:24:00,65.8,36.0,27.55,ENE,70,0.0,0.0,33,0.00,,---,0.00,VWS V14.01,2013-09-03 03:24:00,
2013-09-02 20:29:00,66.0,36.1,27.55,NNE,26,0.0,0.0,33,0.00,,---,0.00,VWS V14.01,2013-09-03 03:29:00,
2013-09-02 20:34:00,65.8,36.0,27.55,NNE,12,0.0,0.0,33,0.00,,---,0.00,VWS V14.01,2013-09-03 03:34:00,
2013-09-02 20:39:00,65.8,36.0,27.55,NE,42,0.0,0.0,33,0.00,,---,0.00,VWS V14.01,2013-09-03 03:39:00,
2013-09-02 20:44:00,65.8,36.0,27.55,NE,42,0.0,0.0,33,0.00,,---,0.00,VWS V14.01,2013-09-03 03:44:00,
2013-09-02 20:49:00,65.7,35.8,27.55,NNE,33,0.0,0.0,33,0.00,,---,0.00,VWS V14.01,2013-09-03 03:49:00,
2013-09-02 20:54:00,65.7,34.2,27.55,North,3,0.0,0.0,31,0.00,,---,0.00,VWS V14.01,2013-09-03 03:54:00,
2013-09-02 20:59:00,65.8,33.6,27.55,North,6,0.0,0.0,30,0.00,,---,0.00,VWS V14.01,2013-09-03 03:59:00,
2013-09-02 21:01:00,66.0,33.7,27.55,NE,34,0.0,0.0,30,0.00,,---,0.00,VWS V14.01,2013-09-03 04:01:00,
2013-09-02 21:06:00,66.0,32.0,27.55,NE,36,0.0,0.0,28,0.00,,---,0.00,VWS V14.01,2013-09-03 04:06:00,
2013-09-02 21:11:00,65.8,31.9,27.55,NNE,29,0.0,0.0,28,0.00,,---,0.00,VWS V14.01,2013-09-03 04:11:00,
2013-09-02 21:16:00,65.7,31.7,27.55,NNE,29,0.0,0.0,28,0.00,,---,0.00,VWS V14.01,2013-09-03 04:16:00,
2013-09-02 21:21:00,65.1,33.8,27.55,NNE,29,0.0,0.0,31,0.00,,---,0.00,VWS V14.01,2013-09-03 04:21:00,
2013-09-02 21:26:00,64.6,34.8,27.55,NNE,29,0.0,0.0,33,0.00,,---,0.00,VWS V14.01,2013-09-03 04:26:00,
2013-09-02 21:31:00,64.2,35.3,27.55,NNE,29,0.0,0.0,34,0.00,,---,0.00,VWS V14.01,2013-09-03 04:31:00,
2013-09-02 21:36:00,64.0,35.1,27.55,NNE,29,0.0,0.0,34,0.00,,---,0.00,VWS V14.01,2013-09-03 04:36:00,
2013-09-02 21:41:00,64.0,35.1,27.55,NNE,29,0.0,0.0,34,0.00,,---,0.00,VWS V14.01,2013-09-03 04:41:00,
2013-09-02 21:46:00,63.9,35.0,27.55,NNE,29,0.0,0.0,34,0.00,,---,0.00,VWS V14.01,2013-09-03 04:46:00,
2013-09-02 21:51:00,63.9,35.0,27.55,NNE,29,0.0,0.0,34,0.00,,---,0.00,VWS V14.01,2013-09-03 04:51:00,
2013-09-02 21:56:00,63.9,35.0,27.55,NNE,29,0.0,0.0,34,0.00,,---,0.00,VWS V14.01,2013-09-03 04:56:00,
2013-09-02 22:01:00,64.2,35.3,27.55,NNE,29,0.0,0.0,34,0.00,,---,0.00,VWS V14.01,2013-09-03 05:01:00,
2013-09-02 22:06:00,64.0,35.1,27.55,NNE,29,0.0,0.0,34,0.00,,---,0.00,VWS V14.01,2013-09-03 05:06:00,
2013-09-02 22:11:00,63.7,34.8,27.55,NNE,29,0.0,0.0,34,0.00,,---,0.00,VWS V14.01,2013-09-03 05:11:00,
2013-09-02 22:16:00,63.1,34.3,27.55,NNE,29,0.0,0.0,34,0.00,,---,0.00,VWS V14.01,2013-09-03 05:16:00,
2013-09-02 22:21:00,62.8,34.8,27.55,NNE,29,0.0,0.0,35,0.00,,---,0.00,VWS V14.01,2013-09-03 05:21:00,
2013-09-02 22:26:00,62.6,34.6,27.55,NNE,29,0.0,0.0,35,0.00,,---,0.00,VWS V14.01,2013-09-03 05:26:00,
2013-09-02 22:31:00,62.4,35.1,27.55,NNE,29,0.0,0.0,36,0.00,,---,0.00,VWS V14.01,2013-09-03 05:31:00,
2013-09-02 22:36:00,62.4,35.1,27.55,NNE,29,0.0,0.0,36,0.00,,---,0.00,VWS V14.01,2013-09-03 05:36:00,
2013-09-02 22:41:00,62.4,35.8,27.55,NNE,29,0.0,0.0,37,0.00,,---,0.00,VWS V14.01,2013-09-03 05:41:00,
2013-09-02 22:46:00,62.4,35.8,27.55,NNE,29,0.0,0.0,37,0.00,,---,0.00,VWS V14.01,2013-09-03 05:46:00,
2013-09-02 22:51:00,62.6,36.0,27.55,NNE,29,0.0,0.0,37,0.00,,---,0.00,VWS V14.01,2013-09-03 05:51:00,
2013-09-02 22:56:00,62.6,36.0,27.55,NNE,29,0.0,0.0,37,0.00,,---,0.00,VWS V14.01,2013-09-03 05:56:00,
2013-09-02 23:01:00,62.6,36.7,27.58,NNE,29,0.0,0.0,38,0.00,,---,0.00,VWS V14.01,2013-09-03 06:01:00,
2013-09-02 23:06:00,62.8,36.8,27.58,NNE,29,0.0,0.0,38,0.00,,---,0.00,VWS V14.01,2013-09-03 06:06:00,
2013-09-02 23:11:00,63.0,36.3,27.58,NNE,29,0.0,0.0,37,0.00,,---,0.00,VWS V14.01,2013-09-03 06:11:00,
2013-09-02 23:16:00,63.0,36.3,27.55,NNE,29,0.0,0.0,37,0.00,,---,0.00,VWS V14.01,2013-09-03 06:16:00,
2013-09-02 23:21:00,63.0,36.3,27.55,NNE,29,0.0,0.0,37,0.00,,---,0.00,VWS V14.01,2013-09-03 06:21:00,
2013-09-02 23:26:00,63.1,36.5,27.55,NNE,29,0.0,0.0,37,0.00,,---,0.00,VWS V14.01,2013-09-03 06:26:00,
2013-09-02 23:31:00,63.3,36.6,27.55,NNE,29,0.0,0.0,37,0.00,,---,0.00,VWS V14.01,2013-09-03 06:31:00,
2013-09-02 23:36:00,63.5,36.1,27.55,NNE,29,0.0,0.0,36,0.00,,---,0.00,VWS V14.01,2013-09-03 06:36:00,
2013-09-02 23:41:00,63.5,35.4,27.55,NNE,29,0.0,0.0,35,0.00,,---,0.00,VWS V14.01,2013-09-03 06:41:00,
2013-09-02 23:46:00,63.5,35.4,27.58,North,0,0.0,0.0,35,0.00,,---,0.00,VWS V14.01,2013-09-03 06:46:00,
2013-09-02 23:51:00,63.3,35.2,27.58,NNW,343,0.0,0.0,35,0.00,,---,0.00,VWS V14.01,2013-09-03 06:51:00,
2013-09-02 23:56:00,63.1,35.1,27.58,NNE,16,0.0,0.0,35,0.00,,---,0.00,VWS V14.01,2013-09-03 06:56:00,